Time;durP1;ratioP1;P1;durP2;ratioP2;P2;SDS_P1;SDS_P2;PMS_P1;PMS_P2;Temp;Humidity;BMP_temperature;BMP_pressure;BME280_temperature;BME280_humidity;BME280_pressure;Samples;Min_cycle;Max_cycle;Signal;HPM_P1;HPM_P2
2022/10/06 00:00:49;;;;;;;4.50;2.30;;;11.90;99.90;;;;;;5031453;28;20187;-78
2022/10/06 00:03:15;;;;;;;8.13;2.50;;;11.80;99.90;;;;;;5035908;28;20211;-79
2022/10/06 00:05:41;;;;;;;14.40;2.27;;;12.10;99.90;;;;;;5035284;28;20573;-80
2022/10/06 00:08:07;;;;;;;13.60;2.17;;;12.20;99.90;;;;;;5018013;28;20573;-76
2022/10/06 00:10:32;;;;;;;6.47;2.50;;;12.20;99.90;;;;;;5034759;28;20272;-74
2022/10/06 00:12:58;;;;;;;8.93;1.83;;;12.10;99.90;;;;;;5036300;28;20180;-76
2022/10/06 00:15:28;;;;;;;9.10;2.23;;;11.60;99.90;;;;;;5029652;28;20208;-74
2022/10/06 00:17:55;;;;;;;5.40;1.83;;;11.60;99.90;;;;;;5028179;28;20497;-75
2022/10/06 00:20:22;;;;;;;9.37;2.13;;;11.80;99.90;;;;;;5023848;28;20235;-78
2022/10/06 00:22:48;;;;;;;7.57;1.90;;;11.90;99.90;;;;;;5025735;28;20178;-76
2022/10/06 00:25:18;;;;;;;6.73;2.63;;;11.70;99.90;;;;;;5024047;28;20323;-77
2022/10/06 00:27:46;;;;;;;4.73;1.90;;;6.30;99.90;;;;;;5029719;28;20180;-76
2022/10/06 00:30:33;;;;;;;6.30;1.93;;;8.00;99.90;;;;;;5035571;28;20195;-74
2022/10/06 00:33:01;;;;;;;8.80;2.90;;;8.30;99.90;;;;;;5025708;28;20192;-77
2022/10/06 00:35:33;;;;;;;6.27;1.97;;;8.50;99.90;;;;;;5029301;28;20584;-76
2022/10/06 00:38:02;;;;;;;8.10;2.00;;;9.00;99.90;;;;;;5030608;28;20589;-76
2022/10/06 00:40:29;;;;;;;10.43;2.13;;;8.80;99.90;;;;;;5025350;28;20235;-79
2022/10/06 00:43:04;;;;;;;10.90;2.30;;;8.70;99.90;;;;;;5035052;28;20259;-78
2022/10/06 00:45:39;;;;;;;11.33;2.17;;;8.00;99.90;;;;;;5035485;28;20603;-76
2022/10/06 00:48:10;;;;;;;10.03;2.37;;;7.30;99.90;;;;;;5029244;28;20179;-79
2022/10/06 00:50:37;;;;;;;7.37;2.17;;;7.30;99.90;;;;;;5031162;28;20635;-75
2022/10/06 00:53:04;;;;;;;9.27;2.33;;;7.10;99.90;;;;;;5022549;28;20180;-73
2022/10/06 00:55:30;;;;;;;11.90;2.67;;;6.90;99.90;;;;;;5025939;28;20181;-74
2022/10/06 00:57:58;;;;;;;11.83;2.90;;;6.20;99.90;;;;;;5017408;28;20216;-76
2022/10/06 01:00:24;;;;;;;8.70;1.80;;;6.30;99.90;;;;;;5034415;28;20280;-74
2022/10/06 01:02:58;;;;;;;15.67;2.17;;;6.60;99.90;;;;;;5035348;28;20189;-75
2022/10/06 01:05:32;;;;;;;10.60;2.20;;;6.50;99.90;;;;;;5033861;28;20173;-72
2022/10/06 01:07:58;;;;;;;8.43;2.60;;;6.20;99.90;;;;;;5020835;28;20182;-73
2022/10/06 01:10:24;;;;;;;6.60;3.20;;;6.30;99.90;;;;;;5033895;28;20606;-72
2022/10/06 01:12:50;;;;;;;9.67;2.50;;;6.40;99.90;;;;;;5035267;28;20177;-71
2022/10/06 01:15:18;;;;;;;11.10;2.57;;;6.70;99.90;;;;;;5032296;28;20222;-71
2022/10/06 01:18:08;;;;;;;16.03;2.80;;;6.40;99.90;;;;;;5027465;28;20181;-71
2022/10/06 01:20:37;;;;;;;16.67;2.50;;;4.70;99.90;;;;;;5034116;28;20193;-71
2022/10/06 01:23:05;;;;;;;6.23;2.23;;;3.80;99.90;;;;;;5038879;28;20196;-72
2022/10/06 01:25:33;;;;;;;14.83;3.60;;;-1.30;99.90;;;;;;5022765;28;20663;-74
2022/10/06 01:28:00;;;;;;;16.23;3.93;;;-2.00;99.90;;;;;;5024965;28;20178;-72
2022/10/06 01:30:35;;;;;;;17.13;4.10;;;-2.00;99.90;;;;;;5027816;28;20183;-71
2022/10/06 01:33:01;;;;;;;12.63;2.70;;;-2.20;99.90;;;;;;5035869;28;20596;-73
2022/10/06 01:35:27;;;;;;;9.37;2.50;;;7.50;99.90;;;;;;5049109;28;20215;-72
2022/10/06 01:37:53;;;;;;;12.73;3.07;;;7.30;99.90;;;;;;5038340;28;20177;-73
2022/10/06 01:40:19;;;;;;;10.10;2.77;;;8.10;99.90;;;;;;5048126;28;20215;-71
2022/10/06 01:42:45;;;;;;;12.77;3.97;;;8.30;99.90;;;;;;5033087;28;20188;-71
2022/10/06 01:45:11;;;;;;;9.70;3.23;;;7.60;99.90;;;;;;5033973;28;20217;-72
2022/10/06 01:47:37;;;;;;;10.83;2.90;;;6.40;99.90;;;;;;5035065;28;20213;-73
2022/10/06 01:50:05;;;;;;;12.67;3.17;;;6.80;99.90;;;;;;5035282;28;20220;-73
2022/10/06 01:52:31;;;;;;;17.00;3.37;;;6.60;99.90;;;;;;5038135;28;20260;-74
2022/10/06 01:54:56;;;;;;;9.33;2.53;;;6.40;99.90;;;;;;5038312;28;20277;-74
2022/10/06 01:57:22;;;;;;;10.67;3.17;;;4.60;99.90;;;;;;5053803;28;20230;-72
2022/10/06 01:59:48;;;;;;;10.03;3.23;;;3.90;99.90;;;;;;5053518;28;20642;-71
2022/10/06 02:02:13;;;;;;;11.30;3.13;;;4.20;99.90;;;;;;5037701;28;20254;-71
2022/10/06 02:04:39;;;;;;;4.57;2.53;;;4.00;99.90;;;;;;5049228;28;20254;-73
2022/10/06 02:07:05;;;;;;;7.63;2.40;;;1.60;99.90;;;;;;5027959;28;20683;-73
2022/10/06 02:09:31;;;;;;;10.23;2.80;;;-2.10;99.90;;;;;;5025843;28;20259;-77
2022/10/06 02:11:57;;;;;;;12.10;3.10;;;-1.70;99.90;;;;;;5030409;28;20635;-72
2022/10/06 02:14:22;;;;;;;5.13;2.43;;;-2.40;99.90;;;;;;5025277;28;20208;-73
2022/10/06 02:16:49;;;;;;;12.47;2.20;;;-2.80;99.90;;;;;;5038179;28;20189;-72
2022/10/06 02:19:15;;;;;;;11.60;3.47;;;-3.40;99.90;;;;;;5021806;28;20185;-76
2022/10/06 02:21:40;;;;;;;11.93;4.13;;;-3.00;99.90;;;;;;5024855;28;20192;-73
2022/10/06 02:24:06;;;;;;;11.30;3.40;;;-3.30;99.90;;;;;;5033247;28;20196;-76
2022/10/06 02:26:32;;;;;;;11.20;3.33;;;-2.50;99.90;;;;;;5045835;28;20191;-75
2022/10/06 02:28:58;;;;;;;9.40;2.43;;;0.70;99.90;;;;;;5027880;28;20192;-74
2022/10/06 02:31:24;;;;;;;14.03;3.03;;;8.30;99.90;;;;;;5027297;28;20192;-74
2022/10/06 02:33:50;;;;;;;6.80;2.00;;;8.40;99.90;;;;;;5037438;28;20181;-75
2022/10/06 02:36:17;;;;;;;11.13;2.73;;;8.00;99.90;;;;;;5036934;28;20202;-78
2022/10/06 02:38:43;;;;;;;11.47;2.53;;;8.10;99.90;;;;;;5032646;28;20503;-75
2022/10/06 02:41:12;;;;;;;6.50;2.53;;;7.60;99.90;;;;;;5033619;28;20275;-73
2022/10/06 02:43:38;;;;;;;11.73;3.53;;;6.50;99.90;;;;;;5020314;28;20209;-74
2022/10/06 02:46:07;;;;;;;7.97;2.97;;;6.80;99.90;;;;;;5032066;28;20181;-73
2022/10/06 02:48:33;;;;;;;10.50;2.00;;;8.60;99.90;;;;;;5035993;28;20189;-72
2022/10/06 02:51:07;;;;;;;7.17;2.93;;;8.50;99.90;;;;;;5036418;28;20204;-72
2022/10/06 02:53:34;;;;;;;11.97;2.73;;;8.80;99.90;;;;;;5031132;28;20223;-71
2022/10/06 02:56:09;;;;;;;12.60;2.87;;;8.50;99.90;;;;;;5035990;28;20193;-72
2022/10/06 02:58:38;;;;;;;22.30;4.63;;;8.60;99.90;;;;;;5028782;28;20184;-75
2022/10/06 03:01:06;;;;;;;18.60;2.57;;;7.20;99.90;;;;;;5029703;28;20287;-72
2022/10/06 03:03:36;;;;;;;15.77;3.40;;;8.40;99.90;;;;;;5036791;28;20228;-72
2022/10/06 03:06:20;;;;;;;26.10;4.87;;;8.30;99.90;;;;;;5036694;28;20169;-73
2022/10/06 03:08:50;;;;;;;10.10;3.03;;;8.40;99.90;;;;;;5035536;28;20184;-70
2022/10/06 03:11:18;;;;;;;7.50;3.37;;;7.50;99.90;;;;;;5023843;28;20660;-72
2022/10/06 03:13:45;;;;;;;9.27;3.53;;;7.10;99.90;;;;;;5049707;28;20192;-71
2022/10/06 03:16:19;;;;;;;13.93;4.00;;;7.40;99.90;;;;;;5025541;28;20186;-71
2022/10/06 03:18:48;;;;;;;17.23;4.23;;;7.70;99.90;;;;;;5032204;28;20268;-72
2022/10/06 03:21:17;;;;;;;22.70;3.87;;;8.70;99.90;;;;;;5032811;28;20242;-71
2022/10/06 03:23:45;;;;;;;14.27;3.30;;;8.20;99.90;;;;;;5032795;28;20201;-73
2022/10/06 03:26:11;;;;;;;10.40;2.57;;;8.40;99.90;;;;;;5036663;28;20184;-73
2022/10/06 03:28:38;;;;;;;10.73;3.20;;;7.40;99.90;;;;;;5029155;28;20181;-77
2022/10/06 03:31:05;;;;;;;16.13;3.97;;;7.10;99.90;;;;;;5034124;28;20181;-73
2022/10/06 03:33:31;;;;;;;7.63;2.10;;;8.60;99.90;;;;;;5033472;28;20487;-75
2022/10/06 03:35:58;;;;;;;9.07;3.03;;;6.40;99.90;;;;;;5046858;28;20253;-75
2022/10/06 03:38:24;;;;;;;26.83;4.07;;;5.20;99.90;;;;;;5032927;28;20494;-78
2022/10/06 03:40:50;;;;;;;12.10;2.67;;;4.90;99.90;;;;;;5029605;28;20611;-75
2022/10/06 03:43:15;;;;;;;11.90;3.23;;;4.10;99.90;;;;;;5029467;28;20180;-79
2022/10/06 03:45:41;;;;;;;16.53;3.70;;;3.20;99.90;;;;;;5036200;28;20486;-78
2022/10/06 03:48:07;;;;;;;12.57;4.27;;;-0.30;99.90;;;;;;5035766;28;20235;-79
2022/10/06 03:50:32;;;;;;;13.03;3.10;;;-0.80;99.90;;;;;;5036180;28;20172;-75
2022/10/06 03:52:58;;;;;;;9.60;2.77;;;2.80;99.90;;;;;;5035761;28;20184;-79
2022/10/06 03:55:24;;;;;;;12.57;3.93;;;3.40;99.90;;;;;;5036392;28;20602;-76
2022/10/06 03:57:49;;;;;;;13.13;3.27;;;3.10;99.90;;;;;;5028665;28;20188;-78
2022/10/06 04:00:15;;;;;;;11.10;3.97;;;4.30;99.90;;;;;;5024011;28;20199;-78
2022/10/06 04:02:41;;;;;;;11.37;3.37;;;4.20;99.90;;;;;;5027505;28;20229;-77
2022/10/06 04:05:07;;;;;;;14.57;4.10;;;5.00;99.90;;;;;;5026941;28;20213;-74
2022/10/06 04:07:33;;;;;;;10.77;3.17;;;3.90;99.90;;;;;;5028890;28;20526;-79
2022/10/06 04:09:58;;;;;;;9.60;3.10;;;5.40;99.90;;;;;;5031591;28;20180;-77
2022/10/06 04:12:24;;;;;;;22.30;2.97;;;5.60;99.90;;;;;;5025344;28;20200;-77
2022/10/06 04:14:50;;;;;;;17.70;3.67;;;4.90;99.90;;;;;;5028784;28;20486;-79
2022/10/06 04:17:15;;;;;;;17.97;4.30;;;4.30;99.90;;;;;;5044146;28;20191;-75
2022/10/06 04:19:41;;;;;;;10.97;3.17;;;6.20;99.90;;;;;;5046451;28;20189;-78
2022/10/06 04:22:07;;;;;;;10.33;3.13;;;6.10;99.90;;;;;;5040026;28;20181;-78
2022/10/06 04:24:33;;;;;;;12.63;3.40;;;6.00;99.90;;;;;;5031599;28;20211;-79
2022/10/06 04:27:26;;;;;;;10.80;3.37;;;5.10;99.90;;;;;;5035845;28;20176;-78
2022/10/06 04:29:44;;;;;;;12.77;3.40;;;6.00;99.90;;;;;;5035098;28;20181;-80
2022/10/06 04:32:10;;;;;;;15.17;3.33;;;5.90;99.90;;;;;;5042641;28;20240;-72
2022/10/06 04:34:36;;;;;;;17.10;3.77;;;6.20;99.90;;;;;;5019611;28;20607;-72
2022/10/06 04:37:02;;;;;;;8.03;3.33;;;6.20;99.90;;;;;;5030677;28;20172;-71
2022/10/06 04:39:28;;;;;;;19.43;4.07;;;4.70;99.90;;;;;;5035473;28;20192;-71
2022/10/06 04:41:54;;;;;;;10.20;2.77;;;6.40;99.90;;;;;;5035391;28;20183;-71
2022/10/06 04:44:19;;;;;;;25.63;4.47;;;5.10;99.90;;;;;;5029285;28;20298;-73
2022/10/06 04:46:45;;;;;;;13.33;3.70;;;4.40;99.90;;;;;;5029572;28;20181;-71
2022/10/06 04:49:13;;;;;;;18.37;3.17;;;5.40;99.90;;;;;;5031770;28;20254;-70
2022/10/06 04:51:38;;;;;;;14.97;3.67;;;5.40;99.90;;;;;;5023563;28;20581;-71
2022/10/06 04:54:04;;;;;;;9.07;2.97;;;4.20;99.90;;;;;;5051037;28;20187;-70
2022/10/06 04:56:31;;;;;;;12.47;3.47;;;3.60;99.90;;;;;;5035364;28;20177;-72
2022/10/06 04:58:57;;;;;;;13.23;3.33;;;4.50;99.90;;;;;;5031619;28;20476;-71
2022/10/06 05:01:29;;;;;;;13.67;2.87;;;4.60;99.90;;;;;;5023304;28;20196;-74
2022/10/06 05:03:57;;;;;;;12.70;3.60;;;5.20;99.90;;;;;;5035217;28;20204;-71
2022/10/06 05:06:26;;;;;;;11.40;3.20;;;4.70;99.90;;;;;;5023555;28;20180;-70
2022/10/06 05:08:54;;;;;;;17.83;3.90;;;5.70;99.90;;;;;;5030998;28;20252;-73
2022/10/06 05:11:21;;;;;;;11.63;2.93;;;6.80;99.90;;;;;;5037456;28;20771;-71
2022/10/06 05:13:48;;;;;;;12.93;3.50;;;7.00;99.90;;;;;;5031576;28;20185;-73
2022/10/06 05:16:15;;;;;;;29.93;4.83;;;7.50;99.90;;;;;;5038856;28;20670;-73
2022/10/06 05:18:42;;;;;;;17.90;4.33;;;7.60;99.90;;;;;;5038847;28;20195;-71
2022/10/06 05:21:12;;;;;;;11.63;3.40;;;7.90;99.90;;;;;;5034192;28;20211;-72
2022/10/06 05:23:40;;;;;;;18.47;4.40;;;8.10;99.90;;;;;;5033295;28;20203;-72
2022/10/06 05:26:07;;;;;;;11.07;4.03;;;8.00;99.90;;;;;;5034947;28;20234;-72
2022/10/06 05:28:34;;;;;;;7.90;3.00;;;8.00;99.90;;;;;;5032756;28;20623;-72
2022/10/06 05:31:07;;;;;;;13.40;4.03;;;7.70;99.90;;;;;;5034622;28;20264;-73
2022/10/06 05:33:34;;;;;;;24.40;4.13;;;7.10;99.90;;;;;;5034071;28;20188;-71
2022/10/06 05:36:03;;;;;;;15.43;3.37;;;-4.90;99.90;;;;;;5035111;28;20237;-71
2022/10/06 05:38:29;;;;;;;17.23;3.47;;;-4.50;99.90;;;;;;5038676;28;20519;-74
2022/10/06 05:41:01;;;;;;;18.03;4.00;;;-4.50;99.90;;;;;;5038281;28;20492;-69
2022/10/06 05:43:27;;;;;;;12.70;4.37;;;-4.80;99.90;;;;;;5035002;28;20202;-73
2022/10/06 05:45:55;;;;;;;18.33;3.43;;;-5.20;99.90;;;;;;5032765;28;20267;-72
2022/10/06 05:48:21;;;;;;;15.27;3.60;;;-4.40;99.90;;;;;;5026550;28;20173;-71
2022/10/06 05:50:47;;;;;;;10.63;3.27;;;-4.60;99.90;;;;;;5028593;28;20173;-75
2022/10/06 05:53:14;;;;;;;14.23;4.37;;;-4.80;99.90;;;;;;5035662;28;20196;-75
2022/10/06 05:55:40;;;;;;;11.37;3.60;;;-4.60;99.90;;;;;;5033451;28;20188;-74
2022/10/06 05:58:05;;;;;;;14.40;3.47;;;-5.10;99.90;;;;;;5031363;28;20177;-73
2022/10/06 06:00:31;;;;;;;12.60;3.47;;;-4.20;99.90;;;;;;5027866;28;20214;-73
2022/10/06 06:02:56;;;;;;;21.23;5.13;;;-4.00;99.90;;;;;;5022073;28;20220;-76
2022/10/06 06:05:22;;;;;;;13.03;3.83;;;-3.80;99.90;;;;;;5032196;28;20193;-74
2022/10/06 06:07:48;;;;;;;15.27;4.83;;;-4.00;99.90;;;;;;5030048;28;20699;-71
2022/10/06 06:10:14;;;;;;;13.13;4.03;;;-3.90;99.90;;;;;;5033219;28;20185;-78
2022/10/06 06:12:40;;;;;;;22.80;5.33;;;-4.80;99.90;;;;;;5028009;28;20185;-78
2022/10/06 06:17:50;;;;;;;7.63;3.50;;;-4.60;99.90;;;;;;5024816;28;20223;-75
2022/10/06 06:20:15;;;;;;;12.63;3.57;;;-4.20;99.90;;;;;;5025418;28;20188;-73
2022/10/06 06:22:41;;;;;;;13.07;4.23;;;-3.60;99.90;;;;;;5031282;28;20181;-74
2022/10/06 06:25:07;;;;;;;13.73;3.77;;;-2.30;99.90;;;;;;5037316;28;20215;-73
2022/10/06 06:27:34;;;;;;;14.77;4.07;;;-3.30;99.90;;;;;;5037183;28;20288;-76
2022/10/06 06:30:00;;;;;;;13.17;3.97;;;-3.50;99.90;;;;;;5033385;28;20196;-73
2022/10/06 06:32:26;;;;;;;13.03;3.40;;;-3.80;99.90;;;;;;5050328;28;20533;-74
2022/10/06 06:34:52;;;;;;;18.63;3.93;;;-3.70;99.90;;;;;;5039752;28;20235;-79
2022/10/06 06:37:18;;;;;;;12.73;4.17;;;-4.00;99.90;;;;;;5034420;28;20600;-74
2022/10/06 06:39:43;;;;;;;23.40;4.57;;;-4.50;99.90;;;;;;5047310;28;20227;-83
2022/10/06 06:42:09;;;;;;;16.83;4.00;;;-3.90;99.90;;;;;;5019974;28;20188;-80
2022/10/06 06:44:35;;;;;;;15.73;3.70;;;-3.70;99.90;;;;;;5034179;28;20207;-80
2022/10/06 06:47:01;;;;;;;20.60;5.57;;;-3.90;99.90;;;;;;5032415;28;20219;-74
2022/10/06 06:49:26;;;;;;;14.50;3.47;;;-3.60;99.90;;;;;;5036931;28;20238;-76
2022/10/06 06:51:53;;;;;;;20.73;3.93;;;-3.60;99.90;;;;;;5030638;28;20172;-75
2022/10/06 06:54:19;;;;;;;20.77;4.67;;;-2.90;99.90;;;;;;5042313;28;20267;-74
2022/10/06 06:56:47;;;;;;;13.77;4.40;;;-3.10;99.90;;;;;;5033990;28;20269;-79
2022/10/06 06:59:13;;;;;;;14.53;4.57;;;-3.10;99.90;;;;;;5040839;28;20189;-77
2022/10/06 07:01:43;;;;;;;22.13;5.03;;;-3.00;99.90;;;;;;5033462;28;20646;-77
2022/10/06 07:04:10;;;;;;;16.30;3.63;;;-3.50;99.90;;;;;;5036039;28;20624;-75
2022/10/06 07:06:38;;;;;;;11.93;3.90;;;-2.50;99.90;;;;;;5036788;28;20265;-76
2022/10/06 07:09:04;;;;;;;18.23;3.80;;;-3.60;99.90;;;;;;5034140;28;20191;-73
2022/10/06 07:11:33;;;;;;;20.30;4.60;;;-4.30;99.90;;;;;;5036271;28;20494;-75
2022/10/06 07:14:01;;;;;;;12.10;2.87;;;-4.70;99.90;;;;;;5035898;28;20619;-75
2022/10/06 07:25:06;;;;;;;20.27;4.47;;;-4.40;99.90;;;;;;5020933;28;20219;-78
2022/10/06 07:27:35;;;;;;;9.07;2.60;;;-4.20;99.90;;;;;;5036531;28;20181;-79
2022/10/06 07:30:01;;;;;;;23.00;6.00;;;-3.80;99.90;;;;;;5051635;28;20208;-78
2022/10/06 07:32:29;;;;;;;14.43;3.30;;;-3.90;99.90;;;;;;5027111;28;20181;-77
2022/10/06 07:34:56;;;;;;;13.43;3.10;;;-3.80;99.90;;;;;;5030511;28;20514;-79
2022/10/06 07:37:23;;;;;;;16.83;3.60;;;-4.20;99.90;;;;;;5046233;28;20199;-79
2022/10/06 07:39:48;;;;;;;18.40;3.53;;;-4.60;99.90;;;;;;5025984;28;20189;-77
2022/10/06 07:42:16;;;;;;;9.87;3.93;;;-2.70;99.90;;;;;;5029561;28;20188;-78
2022/10/06 07:44:42;;;;;;;12.00;3.90;;;-2.20;99.90;;;;;;5051794;28;20197;-78
2022/10/06 07:47:08;;;;;;;13.77;4.27;;;-2.70;99.90;;;;;;5027764;28;20288;-77
2022/10/06 07:49:34;;;;;;;15.83;3.60;;;-2.40;99.90;;;;;;5036170;28;20176;-78
2022/10/06 07:52:01;;;;;;;12.73;4.37;;;-2.20;99.90;;;;;;5018835;28;20188;-78
2022/10/06 07:54:27;;;;;;;12.67;3.47;;;-2.50;99.90;;;;;;5029248;28;20630;-73
2022/10/06 07:56:54;;;;;;;6.87;3.30;;;-2.30;99.90;;;;;;5034436;28;20271;-71
2022/10/06 07:59:20;;;;;;;10.93;3.40;;;-2.90;99.90;;;;;;5035503;28;20231;-71
2022/10/06 08:01:46;;;;;;;17.57;3.50;;;-2.50;99.90;;;;;;5051078;28;20206;-73
2022/10/06 08:04:12;;;;;;;18.07;4.17;;;-2.40;99.90;;;;;;5024305;28;20191;-78
2022/10/06 08:06:39;;;;;;;18.33;4.63;;;-2.70;99.90;;;;;;5024120;28;20227;-75
2022/10/06 08:09:05;;;;;;;14.57;4.50;;;-3.00;99.90;;;;;;5042076;28;20491;-74
2022/10/06 08:11:31;;;;;;;12.70;5.03;;;-3.50;99.90;;;;;;5029403;28;20269;-75
2022/10/06 08:13:58;;;;;;;13.70;3.63;;;-2.80;99.90;;;;;;5035510;28;20210;-72
2022/10/06 08:16:28;;;;;;;14.17;4.17;;;-2.70;99.90;;;;;;5025366;28;20573;-72
2022/10/06 08:18:56;;;;;;;15.83;3.33;;;-2.20;99.90;;;;;;5025758;28;20196;-71
2022/10/06 08:21:24;;;;;;;14.93;3.50;;;-2.60;99.90;;;;;;5032465;28;20181;-71
2022/10/06 08:23:52;;;;;;;13.90;3.70;;;11.50;99.90;;;;;;5033319;28;20191;-69
2022/10/06 08:26:20;;;;;;;22.60;3.40;;;11.50;99.90;;;;;;5018914;28;20462;-73
2022/10/06 08:28:48;;;;;;;11.80;3.03;;;11.60;99.90;;;;;;5032878;28;20181;-72
2022/10/06 08:31:14;;;;;;;11.47;3.00;;;11.60;99.90;;;;;;5031037;28;20184;-77
2022/10/06 08:33:44;;;;;;;11.97;3.37;;;11.70;99.90;;;;;;5035504;28;20596;-72
2022/10/06 08:36:19;;;;;;;11.20;3.00;;;11.70;99.90;;;;;;5032017;28;20242;-71
2022/10/06 08:38:49;;;;;;;6.70;2.97;;;11.80;99.90;;;;;;5027988;28;20180;-77
2022/10/06 08:41:37;;;;;;;11.70;3.47;;;11.80;99.90;;;;;;5034450;28;20180;-77
2022/10/06 08:44:15;;;;;;;14.77;3.13;;;11.80;99.90;;;;;;5027427;28;20215;-76
2022/10/06 08:46:56;;;;;;;10.47;3.23;;;11.80;99.90;;;;;;5032044;28;20172;-72
2022/10/06 08:49:26;;;;;;;17.83;2.70;;;11.80;99.90;;;;;;5031592;28;20183;-76
2022/10/06 08:51:58;;;;;;;7.67;2.03;;;11.90;99.90;;;;;;5038589;28;20256;-78
2022/10/06 08:54:36;;;;;;;11.63;2.73;;;11.80;99.90;;;;;;5036664;28;20189;-77
2022/10/06 08:57:13;;;;;;;13.03;3.27;;;11.90;99.90;;;;;;5032486;28;20181;-79
2022/10/06 08:59:45;;;;;;;9.60;2.63;;;11.90;99.90;;;;;;5034363;28;20184;-71
2022/10/06 09:02:31;;;;;;;12.67;3.93;;;11.90;99.90;;;;;;5038228;28;20616;-71
2022/10/06 09:05:02;;;;;;;5.63;2.13;;;11.80;99.90;;;;;;5027003;28;20205;-73
2022/10/06 09:08:12;;;;;;;8.57;3.13;;;11.30;99.90;;;;;;5032441;28;20195;-77
2022/10/06 09:11:01;;;;;;;9.87;2.73;;;-0.50;99.90;;;;;;5029854;28;20210;-72
2022/10/06 09:13:37;;;;;;;7.27;2.90;;;-0.50;99.90;;;;;;5030927;28;20570;-70
2022/10/06 09:16:07;;;;;;;6.20;1.97;;;-0.90;99.90;;;;;;5022458;28;20226;-70
2022/10/06 09:18:39;;;;;;;6.90;2.30;;;-1.20;99.90;;;;;;5031530;28;20192;-75
2022/10/06 09:21:22;;;;;;;10.60;2.33;;;-0.80;99.90;;;;;;5030984;28;20177;-73
2022/10/06 09:23:55;;;;;;;6.43;2.43;;;-1.40;99.90;;;;;;5034012;28;20211;-75
2022/10/06 09:26:28;;;;;;;11.47;3.27;;;-1.20;99.90;;;;;;5026546;28;20613;-78
2022/10/06 09:28:54;;;;;;;9.03;2.80;;;-1.10;99.90;;;;;;5019830;28;20193;-73
2022/10/06 09:31:36;;;;;;;4.80;1.83;;;-0.90;99.90;;;;;;5020655;28;20637;-79
2022/10/06 09:34:16;;;;;;;10.87;2.10;;;-0.70;99.90;;;;;;5036527;28;20239;-78
2022/10/06 09:37:03;;;;;;;7.73;1.70;;;-0.80;99.90;;;;;;5026615;28;20265;-76
2022/10/06 09:39:35;;;;;;;6.73;1.83;;;0.00;99.90;;;;;;5032166;28;20230;-76
2022/10/06 09:42:03;;;;;;;7.87;1.93;;;0.00;99.90;;;;;;5038520;28;20580;-76
2022/10/06 09:44:35;;;;;;;9.97;1.90;;;-0.20;99.90;;;;;;5037685;28;20215;-76
2022/10/06 09:47:01;;;;;;;16.20;2.60;;;-0.90;99.90;;;;;;5030869;28;20595;-76
2022/10/06 09:49:30;;;;;;;10.10;1.90;;;-1.00;99.90;;;;;;5034379;28;20250;-81
2022/10/06 09:51:59;;;;;;;7.40;1.93;;;6.50;99.90;;;;;;5036210;28;20592;-79
2022/10/06 09:54:25;;;;;;;8.23;2.10;;;6.80;99.90;;;;;;5024896;28;20279;-77
2022/10/06 09:56:52;;;;;;;9.63;2.47;;;6.80;99.90;;;;;;5036765;28;20215;-80
2022/10/06 09:59:33;;;;;;;4.10;2.17;;;6.80;99.90;;;;;;5037805;28;20648;-80
2022/10/06 10:02:00;;;;;;;8.00;1.93;;;7.10;99.90;;;;;;5031293;28;20196;-77
2022/10/06 10:04:39;;;;;;;7.17;2.23;;;7.10;99.90;;;;;;5025981;28;20296;-84
2022/10/06 10:07:23;;;;;;;7.03;2.63;;;7.40;99.90;;;;;;5019999;28;20527;-78
2022/10/06 10:09:50;;;;;;;5.43;2.20;;;7.70;99.90;;;;;;5018972;28;20181;-76
2022/10/06 10:12:28;;;;;;;7.33;2.30;;;7.60;99.90;;;;;;5027001;28;20272;-80
2022/10/06 10:15:22;;;;;;;7.20;1.97;;;1.00;99.90;;;;;;5035346;28;20650;-85
2022/10/06 10:17:51;;;;;;;3.43;2.33;;;-0.20;99.90;;;;;;5046296;28;20181;-83
2022/10/06 10:20:35;;;;;;;8.07;2.67;;;-0.70;99.90;;;;;;5022865;28;20185;-77
2022/10/06 10:23:19;;;;;;;6.60;2.53;;;0.30;99.90;;;;;;5032846;28;20177;-76
2022/10/06 10:26:13;;;;;;;8.90;2.57;;;7.10;99.90;;;;;;5026352;28;20614;-76
2022/10/06 10:29:00;;;;;;;4.63;2.33;;;11.00;99.90;;;;;;5029066;28;20616;-79
2022/10/06 10:31:34;;;;;;;2.10;1.37;;;11.00;99.90;;;;;;5026066;28;20180;-81
2022/10/06 10:34:12;;;;;;;5.50;2.10;;;11.10;99.90;;;;;;5028944;28;20192;-79
2022/10/06 10:36:50;;;;;;;5.03;1.83;;;11.10;99.90;;;;;;5036646;28;20172;-79
2022/10/06 10:39:42;;;;;;;16.93;2.83;;;11.10;99.90;;;;;;5031866;28;20250;-78
2022/10/06 10:42:28;;;;;;;9.67;2.17;;;11.20;99.90;;;;;;5033739;28;20589;-75
2022/10/06 10:45:00;;;;;;;6.33;1.70;;;11.00;99.90;;;;;;5051399;28;20640;-77
2022/10/06 10:47:34;;;;;;;4.67;1.97;;;2.70;99.90;;;;;;5051606;28;20181;-80
2022/10/06 10:50:10;;;;;;;2.70;1.27;;;12.00;99.90;;;;;;5033243;28;20176;-78
2022/10/06 10:52:41;;;;;;;10.97;2.57;;;12.00;99.90;;;;;;5023785;28;20173;-74
2022/10/06 10:55:25;;;;;;;4.53;2.50;;;12.00;99.90;;;;;;5032938;28;20179;-72
2022/10/06 10:57:55;;;;;;;7.83;1.80;;;12.80;99.90;;;;;;5035163;28;20191;-76
2022/10/06 11:00:26;;;;;;;5.40;1.80;;;14.20;99.90;;;;;;5033522;28;20244;-72
2022/10/06 11:02:56;;;;;;;5.57;2.20;;;14.10;99.90;;;;;;5028631;28;20184;-72
2022/10/06 11:05:29;;;;;;;8.90;1.80;;;15.70;99.90;;;;;;5026383;28;20213;-72
2022/10/06 11:08:44;;;;;;;4.20;1.33;;;15.80;99.90;;;;;;5029867;28;20177;-71
2022/10/06 11:11:30;;;;;;;5.57;1.70;;;15.70;99.90;;;;;;5003074;28;20188;-71
2022/10/06 11:14:02;;;;;;;6.77;1.97;;;15.10;99.90;;;;;;5036508;28;20255;-73
2022/10/06 11:16:36;;;;;;;7.97;2.10;;;15.20;99.90;;;;;;5027812;28;20180;-72
2022/10/06 11:19:46;;;;;;;4.27;1.87;;;12.40;99.90;;;;;;5030072;28;20264;-78
2022/10/06 11:22:40;;;;;;;5.33;2.40;;;-0.20;99.90;;;;;;5002118;28;20208;-79
2022/10/06 11:25:43;;;;;;;5.70;2.20;;;-0.80;99.90;;;;;;5023797;28;20312;-76
2022/10/06 11:28:12;;;;;;;11.20;1.90;;;-2.60;97.30;;;;;;5034079;28;20185;-77
2022/10/06 11:30:47;;;;;;;3.53;1.40;;;-4.30;95.00;;;;;;5032225;28;20180;-79
2022/10/06 11:33:39;;;;;;;5.63;1.60;;;18.00;99.70;;;;;;5036728;28;20212;-73
2022/10/06 11:36:12;;;;;;;8.07;1.37;;;18.10;99.10;;;;;;5024996;28;20170;-74
2022/10/06 11:38:40;;;;;;;6.80;1.20;;;18.00;98.50;;;;;;5022999;28;20580;-72
2022/10/06 11:41:26;;;;;;;7.40;1.70;;;14.80;97.20;;;;;;5039293;28;20187;-77
2022/10/06 11:44:15;;;;;;;3.23;1.97;;;16.50;97.90;;;;;;5038233;28;20188;-80
2022/10/06 11:46:58;;;;;;;2.60;1.40;;;17.60;96.10;;;;;;5015643;28;20181;-79
2022/10/06 11:49:31;;;;;;;5.73;1.67;;;18.80;95.90;;;;;;5033003;28;20185;-76
2022/10/06 11:52:06;;;;;;;10.37;1.63;;;18.60;96.00;;;;;;5048951;28;20180;-79
2022/10/06 11:54:46;;;;;;;1.60;1.50;;;18.60;95.70;;;;;;5032190;28;20192;-79
2022/10/06 11:57:21;;;;;;;2.63;1.17;;;18.50;95.00;;;;;;5030985;28;20242;-77
2022/10/06 11:59:49;;;;;;;6.47;1.87;;;18.30;95.90;;;;;;5035615;28;21645;-78
2022/10/06 12:02:33;;;;;;;2.10;1.20;;;16.00;95.20;;;;;;5031979;28;20208;-74
2022/10/06 12:05:08;;;;;;;1.40;1.23;;;17.60;93.90;;;;;;5020158;28;20243;-80
2022/10/06 12:07:53;;;;;;;3.93;1.30;;;19.40;94.30;;;;;;5051287;28;20176;-81
2022/10/06 12:10:28;;;;;;;8.13;2.30;;;20.30;94.80;;;;;;5034050;28;20187;-79
2022/10/06 12:13:09;;;;;;;7.93;2.47;;;20.80;94.30;;;;;;5030641;28;20184;-75
2022/10/06 12:15:53;;;;;;;3.37;1.17;;;18.30;92.00;;;;;;5033251;28;20620;-78
2022/10/06 12:18:46;;;;;;;6.20;1.27;;;17.20;92.60;;;;;;5016589;28;20184;-77
2022/10/06 12:21:24;;;;;;;5.43;1.47;;;17.90;91.50;;;;;;5017722;28;20187;-75
2022/10/06 12:24:04;;;;;;;5.27;1.47;;;21.00;92.70;;;;;;5021522;28;20243;-74
2022/10/06 12:26:51;;;;;;;15.43;1.80;;;21.70;92.30;;;;;;5028534;28;20196;-76
2022/10/06 12:29:20;;;;;;;3.83;1.60;;;21.00;91.80;;;;;;5031719;28;20374;-77
2022/10/06 12:31:59;;;;;;;3.70;1.57;;;20.80;93.70;;;;;;5028001;28;20518;-81
2022/10/06 12:35:01;;;;;;;6.63;1.73;;;20.90;93.60;;;;;;5035528;28;20259;-78
2022/10/06 12:37:42;;;;;;;7.20;1.83;;;21.40;93.90;;;;;;5024457;28;20644;-76
2022/10/06 12:40:46;;;;;;;4.47;1.53;;;22.00;92.30;;;;;;5028130;28;20223;-77
2022/10/06 12:43:18;;;;;;;12.27;1.70;;;21.80;91.90;;;;;;5029406;28;20203;-77
2022/10/06 12:45:47;;;;;;;2.53;0.80;;;21.50;92.70;;;;;;5028704;28;20291;-78
2022/10/06 12:48:48;;;;;;;5.10;1.70;;;21.40;93.00;;;;;;5033335;28;20477;-82
2022/10/06 12:51:37;;;;;;;3.80;1.70;;;21.90;93.10;;;;;;5021876;28;20199;-74
2022/10/06 12:54:10;;;;;;;8.83;2.60;;;22.30;92.50;;;;;;5017993;28;20181;-78
2022/10/06 12:56:38;;;;;;;6.33;2.30;;;22.60;91.30;;;;;;5024348;28;20181;-81
2022/10/06 12:59:20;;;;;;;7.53;1.50;;;23.00;90.00;;;;;;5022757;28;20181;-76
2022/10/06 13:01:52;;;;;;;5.10;1.97;;;23.40;89.10;;;;;;5020399;28;20193;-71
2022/10/06 13:04:58;;;;;;;5.13;2.20;;;23.30;86.40;;;;;;5034916;28;20230;-76
2022/10/06 13:07:29;;;;;;;10.93;2.17;;;22.80;85.90;;;;;;5027302;28;20223;-75
2022/10/06 13:10:13;;;;;;;2.93;1.40;;;23.00;87.50;;;;;;5035264;28;20172;-77
2022/10/06 13:12:45;;;;;;;5.13;1.37;;;22.30;87.50;;;;;;5025247;28;20627;-74
2022/10/06 13:15:23;;;;;;;6.60;2.00;;;22.60;87.10;;;;;;5034745;28;20200;-79
2022/10/06 13:17:59;;;;;;;5.60;1.67;;;23.00;87.00;;;;;;5034800;28;20185;-76